Time;durP1;ratioP1;P1;durP2;ratioP2;P2;SDS_P1;SDS_P2;PMS_P1;PMS_P2;Temp;Humidity;BMP_temperature;BMP_pressure;BME280_temperature;BME280_humidity;BME280_pressure;Samples;Min_cycle;Max_cycle;Signal;HPM_P1;HPM_P2
2024/03/28 00:01:00;;;;;;;1.08;1.08;;;;;;;4.68;100.00;90498.16;2090200;28;20025;-83
2024/03/28 00:02:02;;;;;;;1.10;1.10;;;;;;;4.70;100.00;90495.84;2087097;28;20032;-84
2024/03/28 00:03:03;;;;;;;1.10;1.00;;;;;;;4.86;100.00;90497.41;2082037;28;20032;-83
2024/03/28 00:04:04;;;;;;;1.25;1.15;;;;;;;4.79;100.00;90493.16;2080455;28;20018;-83
2024/03/28 00:05:05;;;;;;;1.42;1.33;;;;;;;4.69;100.00;90495.06;2083285;28;20027;-87
2024/03/28 00:06:07;;;;;;;1.40;1.30;;;;;;;4.71;100.00;90494.66;2096641;28;20530;-85
2024/03/28 00:07:08;;;;;;;1.33;1.23;;;;;;;4.86;100.00;90502.72;2084038;28;20478;-84
2024/03/28 00:08:09;;;;;;;2.67;1.33;;;;;;;4.93;100.00;90502.41;2084124;28;20052;-84
2024/03/28 00:09:11;;;;;;;1.42;1.30;;;;;;;5.06;100.00;90497.69;2104336;28;20036;-83
2024/03/28 00:10:12;;;;;;;1.58;1.20;;;;;;;5.00;100.00;90497.56;2098404;28;20029;-84
2024/03/28 00:11:13;;;;;;;1.25;1.15;;;;;;;4.67;100.00;90492.16;2090428;28;20116;-85
2024/03/28 00:12:14;;;;;;;1.23;1.20;;;;;;;4.47;100.00;90497.13;2098249;28;20024;-85
2024/03/28 00:13:16;;;;;;;1.48;1.38;;;;;;;4.43;100.00;90492.00;2090208;28;20067;-85
2024/03/28 00:14:17;;;;;;;1.35;1.27;;;;;;;4.29;100.00;90495.97;2103495;28;20016;-85
2024/03/28 00:15:18;;;;;;;1.13;1.13;;;;;;;4.36;100.00;90496.88;2084563;28;20094;-87
2024/03/28 00:16:19;;;;;;;1.38;1.27;;;;;;;4.43;100.00;90488.63;2082043;28;20030;-83
2024/03/28 00:17:20;;;;;;;2.08;1.30;;;;;;;4.47;100.00;90484.66;2086510;28;20028;-84
2024/03/28 00:18:21;;;;;;;2.40;1.20;;;;;;;4.56;100.00;90486.56;2093762;28;20036;-85
2024/03/28 00:19:22;;;;;;;1.58;1.30;;;;;;;4.58;100.00;90481.56;2089217;28;20500;-84
2024/03/28 00:20:24;;;;;;;2.42;1.60;;;;;;;4.73;100.00;90482.44;2098197;28;20783;-82
2024/03/28 00:21:26;;;;;;;2.63;1.80;;;;;;;4.62;100.00;90474.22;2090511;28;20116;-85
2024/03/28 00:22:28;;;;;;;1.98;1.70;;;;;;;4.54;100.00;90475.69;2097974;28;20048;-84
2024/03/28 00:23:29;;;;;;;1.90;1.70;;;;;;;4.45;100.00;90479.09;2089993;28;20028;-83
2024/03/28 00:24:30;;;;;;;1.98;1.88;;;;;;;4.48;100.00;90483.50;2086805;28;20020;-84
2024/03/28 00:25:31;;;;;;;2.05;1.90;;;;;;;4.37;100.00;90474.53;2093282;28;20025;-84
2024/03/28 00:26:33;;;;;;;1.90;1.80;;;;;;;4.27;100.00;90477.16;2087062;28;20405;-86
2024/03/28 00:27:35;;;;;;;2.25;2.05;;;;;;;4.42;100.00;90476.56;2090157;28;20036;-84
2024/03/28 00:28:36;;;;;;;2.10;2.00;;;;;;;4.22;100.00;90474.38;2098069;28;20369;-84
2024/03/28 00:29:37;;;;;;;2.28;2.10;;;;;;;4.25;100.00;90473.50;2084052;28;20105;-83
2024/03/28 00:30:38;;;;;;;2.40;2.20;;;;;;;4.35;100.00;90474.97;2087825;28;20145;-83
2024/03/28 00:31:39;;;;;;;2.42;2.22;;;;;;;4.39;100.00;90477.44;2096009;28;20467;-82
2024/03/28 00:32:40;;;;;;;2.28;2.17;;;;;;;4.53;100.00;90476.88;2091815;28;20517;-84
2024/03/28 00:33:41;;;;;;;2.38;2.28;;;;;;;4.68;100.00;90467.16;2098088;28;20070;-84
2024/03/28 00:34:42;;;;;;;2.47;2.28;;;;;;;4.58;100.00;90468.34;2098055;28;20028;-83
2024/03/28 00:35:44;;;;;;;3.35;2.50;;;;;;;4.73;100.00;90468.47;2081707;28;20029;-84
2024/03/28 00:36:45;;;;;;;2.40;2.30;;;;;;;4.87;100.00;90461.81;2081809;28;20107;-86
2024/03/28 00:37:46;;;;;;;2.83;2.55;;;;;;;4.76;100.00;90473.63;2096935;28;20031;-83
2024/03/28 00:38:47;;;;;;;2.22;2.13;;;;;;;4.82;100.00;90476.38;2098216;28;20059;-82
2024/03/28 00:39:49;;;;;;;3.00;2.35;;;;;;;4.76;100.00;90475.53;2090010;28;20462;-83
2024/03/28 00:40:53;;;;;;;2.67;2.47;;;;;;;4.82;100.00;90467.72;2090220;28;20024;-83
2024/03/28 00:41:54;;;;;;;2.78;2.58;;;;;;;4.88;100.00;90468.59;2090347;28;20067;-85
2024/03/28 00:42:56;;;;;;;2.47;2.35;;;;;;;4.40;100.00;90477.03;2089893;28;20111;-81
2024/03/28 00:43:57;;;;;;;2.38;2.22;;;;;;;4.61;100.00;90469.34;2098133;28;20108;-82
2024/03/28 00:44:58;;;;;;;2.40;2.30;;;;;;;4.54;100.00;90465.84;2089944;28;20029;-82
2024/03/28 00:46:02;;;;;;;2.80;2.60;;;;;;;4.45;100.00;90467.78;2106105;28;20020;-82
2024/03/28 00:47:03;;;;;;;2.58;2.38;;;;;;;4.32;100.00;90465.28;2106357;28;20509;-84
2024/03/28 00:48:05;;;;;;;2.50;2.30;;;;;;;4.37;100.00;90469.25;2095882;28;20040;-83
2024/03/28 00:49:06;;;;;;;3.17;2.95;;;;;;;4.43;100.00;90460.25;2081006;28;20044;-83
2024/03/28 00:50:07;;;;;;;2.80;2.60;;;;;;;4.57;100.00;90463.50;2079300;28;20037;-82
2024/03/28 00:51:08;;;;;;;2.40;2.30;;;;;;;4.51;100.00;90464.06;2089624;28;20540;-83
2024/03/28 00:52:09;;;;;;;2.90;2.70;;;;;;;4.25;100.00;90465.56;2097874;28;20024;-83
2024/03/28 00:53:10;;;;;;;2.72;2.55;;;;;;;4.21;100.00;90462.31;2097781;28;20492;-82
2024/03/28 00:54:11;;;;;;;3.22;2.70;;;;;;;4.12;100.00;90457.03;2081640;28;20493;-83
2024/03/28 00:55:12;;;;;;;2.80;2.60;;;;;;;4.21;100.00;90451.75;2081504;28;20064;-83
2024/03/28 00:56:13;;;;;;;3.00;2.80;;;;;;;4.26;100.00;90448.53;2089519;28;20017;-82
2024/03/28 00:57:14;;;;;;;2.70;2.50;;;;;;;4.25;100.00;90452.34;2096907;28;20036;-82
2024/03/28 00:58:16;;;;;;;3.20;2.90;;;;;;;4.42;100.00;90450.88;2105857;28;20058;-83
2024/03/28 00:59:17;;;;;;;2.70;2.50;;;;;;;4.40;100.00;90452.50;2096386;28;20028;-81
2024/03/28 01:00:19;;;;;;;3.05;2.85;;;;;;;4.57;100.00;90447.63;2084870;28;20025;-83
2024/03/28 01:01:20;;;;;;;2.78;2.58;;;;;;;4.19;100.00;90454.09;2081715;28;20504;-83
2024/03/28 01:02:21;;;;;;;2.70;2.50;;;;;;;4.05;100.00;90455.44;2089840;28;20032;-82
2024/03/28 01:03:22;;;;;;;2.90;2.70;;;;;;;4.27;100.00;90452.66;2089612;28;20539;-82
2024/03/28 01:04:24;;;;;;;2.40;2.30;;;;;;;4.17;100.00;90457.19;2085587;28;20115;-82
2024/03/28 01:05:25;;;;;;;3.88;2.55;;;;;;;4.27;100.00;90453.38;2106158;28;20103;-83
2024/03/28 01:06:26;;;;;;;2.60;2.42;;;;;;;4.38;100.00;90454.84;2093632;28;20028;-83
2024/03/28 01:07:27;;;;;;;2.88;2.50;;;;;;;4.29;100.00;90450.28;2086060;28;20028;-83
2024/03/28 01:08:28;;;;;;;2.80;2.60;;;;;;;4.34;100.00;90454.25;2081370;28;20032;-84
2024/03/28 01:09:29;;;;;;;2.63;2.42;;;;;;;4.40;100.00;90452.50;2076439;28;20548;-86
2024/03/28 01:10:30;;;;;;;2.70;2.50;;;;;;;4.44;100.00;90450.44;2078010;28;20115;-82
2024/03/28 01:11:32;;;;;;;3.17;2.97;;;;;;;4.31;100.00;90449.84;2084051;28;20045;-84
2024/03/28 01:12:33;;;;;;;2.67;2.47;;;;;;;4.45;100.00;90455.28;2085444;28;20144;-83
2024/03/28 01:13:34;;;;;;;3.00;2.80;;;;;;;4.47;100.00;90444.97;2097800;28;20025;-83
2024/03/28 01:14:35;;;;;;;2.88;2.67;;;;;;;4.44;100.00;90442.50;2097813;28;20017;-84
2024/03/28 01:15:41;;;;;;;3.00;2.80;;;;;;;4.30;100.00;90441.16;2095389;28;20447;-82
2024/03/28 01:16:42;;;;;;;3.00;2.80;;;;;;;4.54;100.00;90436.03;2091156;28;20032;-84
2024/03/28 01:17:44;;;;;;;3.28;3.08;;;;;;;4.65;100.00;90435.56;2081535;28;20487;-82
2024/03/28 01:18:44;;;;;;;5.18;2.80;;;;;;;4.73;100.00;90436.72;2089336;28;20041;-81
2024/03/28 01:19:46;;;;;;;3.00;2.80;;;;;;;4.52;100.00;90438.34;2078815;28;20028;-84
2024/03/28 01:20:47;;;;;;;3.30;3.08;;;;;;;4.25;100.00;90436.47;2089570;28;20170;-86
2024/03/28 01:21:48;;;;;;;3.03;2.83;;;;;;;4.53;100.00;90437.94;2090323;28;20033;-85
2024/03/28 01:22:49;;;;;;;3.45;3.25;;;;;;;4.31;100.00;90429.44;2082947;28;20028;-84
2024/03/28 01:23:50;;;;;;;3.42;3.22;;;;;;;4.39;100.00;90433.25;2086178;28;20347;-84
2024/03/28 01:24:51;;;;;;;3.08;2.75;;;;;;;4.22;100.00;90429.44;2097317;28;20036;-82
2024/03/28 01:25:52;;;;;;;3.38;3.17;;;;;;;4.17;100.00;90425.47;2082797;28;20021;-84
2024/03/28 01:26:53;;;;;;;2.90;2.70;;;;;;;4.33;100.00;90432.38;2089529;28;20082;-84
2024/03/28 01:27:54;;;;;;;3.17;2.97;;;;;;;4.43;100.00;90425.16;2093772;28;20028;-84
2024/03/28 01:28:55;;;;;;;3.40;3.20;;;;;;;4.45;100.00;90428.09;2095900;28;20354;-83
2024/03/28 01:29:57;;;;;;;3.35;3.05;;;;;;;4.49;100.00;90421.47;2094211;28;20719;-82
2024/03/28 01:31:01;;;;;;;3.65;2.95;;;;;;;4.32;100.00;90425.63;2085379;28;20085;-88
2024/03/28 01:32:03;;;;;;;3.15;2.95;;;;;;;4.49;100.00;90418.09;2095169;28;20024;-83
2024/03/28 01:33:04;;;;;;;3.22;3.03;;;;;;;4.47;100.00;90417.81;2085497;28;20022;-83
2024/03/28 01:34:05;;;;;;;3.20;2.97;;;;;;;4.44;100.00;90416.78;2087778;28;20119;-84
2024/03/28 01:35:07;;;;;;;3.38;3.17;;;;;;;4.33;100.00;90413.13;2074853;28;20465;-84
2024/03/28 01:36:10;;;;;;;3.22;3.03;;;;;;;4.67;100.00;90418.06;2087824;28;20033;-83
2024/03/28 01:37:12;;;;;;;3.63;3.30;;;;;;;4.59;100.00;90418.81;2081618;28;20033;-82
2024/03/28 01:38:13;;;;;;;3.38;3.17;;;;;;;4.38;100.00;90429.13;2072954;28;20479;-85
2024/03/28 01:39:14;;;;;;;4.75;3.38;;;;;;;4.34;100.00;90423.25;2083929;28;21009;-85
2024/03/28 01:40:16;;;;;;;3.67;3.40;;;;;;;4.25;100.00;90424.00;2086159;28;20049;-86
2024/03/28 01:41:17;;;;;;;3.58;3.28;;;;;;;4.41;100.00;90419.59;2084351;28;20016;-83
2024/03/28 01:42:19;;;;;;;3.22;3.03;;;;;;;4.25;100.00;90420.63;2081772;28;20037;-82
2024/03/28 01:43:20;;;;;;;3.47;3.22;;;;;;;4.31;100.00;90418.88;2077908;28;20014;-82
2024/03/28 01:44:23;;;;;;;3.20;3.00;;;;;;;4.42;100.00;90423.69;2076550;28;20036;-82
2024/03/28 01:45:24;;;;;;;3.78;3.47;;;;;;;4.46;100.00;90425.00;2081771;28;20164;-84
2024/03/28 01:46:25;;;;;;;3.67;3.47;;;;;;;4.34;100.00;90423.25;2085435;28;20473;-86
2024/03/28 01:47:28;;;;;;;3.20;3.00;;;;;;;4.36;100.00;90426.19;2089596;28;20092;-82
2024/03/28 01:48:29;;;;;;;3.00;2.80;;;;;;;4.23;100.00;90429.00;2089595;28;20072;-85
2024/03/28 01:49:31;;;;;;;3.65;3.45;;;;;;;4.27;100.00;90432.22;2077848;28;20056;-84
2024/03/28 01:50:33;;;;;;;3.20;3.00;;;;;;;4.24;100.00;90433.09;2081335;28;20139;-82
2024/03/28 01:51:34;;;;;;;3.33;3.13;;;;;;;3.97;100.00;90433.84;2089281;28;20485;-86
2024/03/28 01:52:38;;;;;;;3.40;3.20;;;;;;;4.10;100.00;90435.59;2089653;28;20033;-85
2024/03/28 01:53:39;;;;;;;3.42;3.15;;;;;;;4.16;100.00;90431.91;2093448;28;20108;-83
2024/03/28 01:54:41;;;;;;;3.15;2.95;;;;;;;4.44;100.00;90419.44;2098066;28;20167;-84
2024/03/28 01:55:42;;;;;;;3.70;3.40;;;;;;;3.82;100.00;90424.25;2094727;28;20484;-84
2024/03/28 01:56:44;;;;;;;3.58;3.38;;;;;;;3.96;100.00;90429.00;2089780;28;20029;-82
2024/03/28 01:57:46;;;;;;;4.00;3.70;;;;;;;3.63;100.00;90426.16;2094818;28;20031;-84
2024/03/28 01:58:47;;;;;;;4.10;3.80;;;;;;;3.87;100.00;90416.50;2090202;28;20032;-83
2024/03/28 01:59:50;;;;;;;4.25;3.45;;;;;;;3.81;100.00;90417.53;2098291;28;20024;-82
2024/03/28 02:00:52;;;;;;;4.20;3.08;;;;;;;3.90;100.00;90415.63;2074670;28;20165;-84
2024/03/28 02:01:54;;;;;;;3.38;3.17;;;;;;;3.77;100.00;90422.94;2082357;28;20457;-82
2024/03/28 02:02:56;;;;;;;3.35;3.15;;;;;;;3.43;100.00;90427.31;2098798;28;20074;-85
2024/03/28 02:03:57;;;;;;;3.90;3.60;;;;;;;3.38;100.00;90429.75;2090243;28;20055;-82
2024/03/28 02:04:59;;;;;;;3.55;3.33;;;;;;;3.66;100.00;90423.38;2090309;28;20718;-84
2024/03/28 02:06:00;;;;;;;3.80;3.50;;;;;;;3.45;100.00;90426.84;2098729;28;20028;-85
2024/03/28 02:07:01;;;;;;;3.85;3.55;;;;;;;3.32;100.00;90424.31;2098092;28;20047;-82
2024/03/28 02:08:02;;;;;;;3.38;3.17;;;;;;;3.41;100.00;90421.72;2088669;28;20080;-84
2024/03/28 02:09:04;;;;;;;3.65;3.45;;;;;;;3.53;100.00;90420.84;2090679;28;20045;-82
2024/03/28 02:10:05;;;;;;;3.70;3.50;;;;;;;3.22;100.00;90422.84;2096444;28;20090;-83
2024/03/28 02:11:06;;;;;;;3.70;3.40;;;;;;;3.31;100.00;90417.59;2083128;28;20487;-83
2024/03/28 02:12:07;;;;;;;3.28;3.08;;;;;;;3.58;100.00;90408.25;2090150;28;20029;-84
2024/03/28 02:13:08;;;;;;;3.35;3.15;;;;;;;3.20;100.00;90406.69;2089646;28;20098;-83
2024/03/28 02:14:09;;;;;;;4.10;3.80;;;;;;;3.59;100.00;90407.81;2085823;28;20028;-83
2024/03/28 02:15:10;;;;;;;3.65;3.45;;;;;;;3.39;100.00;90399.56;2083342;28;20101;-84
2024/03/28 02:16:12;;;;;;;3.92;3.63;;;;;;;3.58;100.00;90405.59;2092461;28;20028;-83
2024/03/28 02:17:13;;;;;;;3.72;3.40;;;;;;;3.63;100.00;90415.59;2097749;28;20036;-83
2024/03/28 02:18:22;;;;;;;3.70;3.40;;;;;;;3.71;100.00;90408.84;2089384;28;20018;-85
2024/03/28 02:19:39;;;;;;;4.00;3.70;;;;;;;3.71;100.00;90411.50;2093682;28;20024;-83
2024/03/28 02:20:40;;;;;;;3.40;3.20;;;;;;;3.92;100.00;90408.00;2091552;28;20100;-83
2024/03/28 02:21:45;;;;;;;3.88;3.58;;;;;;;3.67;100.00;90413.53;2089173;28;20044;-83
2024/03/28 02:22:46;;;;;;;4.07;3.78;;;;;;;3.90;100.00;90418.25;2093143;28;20032;-83
2024/03/28 02:23:51;;;;;;;4.07;3.78;;;;;;;3.98;100.00;90413.44;2092113;28;20031;-84
2024/03/28 02:24:54;;;;;;;4.10;3.80;;;;;;;3.47;100.00;90419.25;2097237;28;20119;-83
2024/03/28 02:25:55;;;;;;;4.00;3.60;;;;;;;3.82;100.00;90413.69;2086846;28;20036;-86
2024/03/28 02:26:56;;;;;;;3.80;3.50;;;;;;;3.44;100.00;90426.13;2089254;28;20031;-85
2024/03/28 02:27:57;;;;;;;3.70;3.50;;;;;;;3.56;100.00;90424.53;2084861;28;20029;-86
2024/03/28 02:28:58;;;;;;;3.63;3.42;;;;;;;3.73;100.00;90419.72;2080652;28;20120;-81
2024/03/28 02:29:59;;;;;;;3.72;3.42;;;;;;;3.79;100.00;90421.34;2087944;28;20060;-85
2024/03/28 02:31:01;;;;;;;3.83;3.50;;;;;;;3.33;100.00;90428.44;2084946;28;20078;-83
2024/03/28 02:32:02;;;;;;;3.70;3.40;;;;;;;3.66;100.00;90426.03;2073094;28;20124;-85
2024/03/28 02:33:03;;;;;;;3.65;3.45;;;;;;;3.72;100.00;90428.81;2080905;28;20466;-85
2024/03/28 02:34:04;;;;;;;3.90;3.60;;;;;;;3.66;100.00;90430.56;2073873;28;20029;-85
2024/03/28 02:35:06;;;;;;;3.83;3.63;;;;;;;3.73;100.00;90427.63;2087583;28;20025;-85
2024/03/28 02:36:07;;;;;;;3.70;3.40;;;;;;;3.60;100.00;90427.78;2082808;28;20410;-85
2024/03/28 02:37:10;;;;;;;3.92;3.65;;;;;;;3.47;100.00;90435.81;2079228;28;20802;-84
2024/03/28 02:38:11;;;;;;;4.72;3.38;;;;;;;3.44;100.00;90426.13;2073254;28;20502;-82
2024/03/28 02:39:13;;;;;;;3.85;3.55;;;;;;;3.32;100.00;90434.88;2083426;28;20045;-83
2024/03/28 02:40:14;;;;;;;4.13;3.83;;;;;;;3.02;100.00;90434.47;2094890;28;20055;-84
2024/03/28 02:41:19;;;;;;;3.83;3.63;;;;;;;3.24;100.00;90434.41;2081075;28;20029;-85
2024/03/28 02:42:20;;;;;;;3.65;3.45;;;;;;;3.54;100.00;90427.59;2085451;28;20019;-83
2024/03/28 02:43:21;;;;;;;3.60;3.40;;;;;;;3.26;100.00;90428.72;2085419;28;20784;-85
2024/03/28 02:44:22;;;;;;;3.75;3.45;;;;;;;3.43;100.00;90427.31;2080901;28;20021;-86
2024/03/28 02:45:23;;;;;;;4.07;3.78;;;;;;;3.57;100.00;90433.19;2084626;28;20462;-83
2024/03/28 02:46:24;;;;;;;3.53;3.33;;;;;;;3.47;100.00;90435.81;2084905;28;20025;-88
2024/03/28 02:47:25;;;;;;;3.65;3.35;;;;;;;3.31;100.00;90438.69;2084909;28;20025;-87
2024/03/28 02:48:26;;;;;;;3.60;3.30;;;;;;;3.04;100.00;90431.41;2084781;28;20017;-83
2024/03/28 02:49:27;;;;;;;3.58;3.30;;;;;;;3.18;100.00;90430.88;2088753;28;20025;-85
2024/03/28 02:50:28;;;;;;;3.58;3.38;;;;;;;3.41;100.00;90432.25;2080084;28;20494;-86
2024/03/28 02:51:29;;;;;;;3.40;3.20;;;;;;;3.32;100.00;90426.22;2077130;28;20026;-83
2024/03/28 02:52:30;;;;;;;3.53;3.33;;;;;;;3.44;100.00;90426.13;2088525;28;20025;-87
2024/03/28 02:53:31;;;;;;;3.78;3.47;;;;;;;3.42;100.00;90431.09;2088351;28;20044;-83
2024/03/28 02:54:32;;;;;;;3.53;3.33;;;;;;;3.13;100.00;90422.81;2097179;28;20059;-85
2024/03/28 02:55:33;;;;;;;3.40;3.20;;;;;;;3.09;100.00;90428.22;2097495;28;20032;-84
2024/03/28 02:56:35;;;;;;;3.15;2.95;;;;;;;3.17;100.00;90442.63;2095637;28;20040;-87
2024/03/28 02:57:36;;;;;;;4.30;3.10;;;;;;;3.01;100.00;90430.38;2104975;28;20106;-84
2024/03/28 02:58:37;;;;;;;3.50;3.30;;;;;;;3.21;100.00;90439.84;2089023;28;20021;-83
2024/03/28 02:59:38;;;;;;;3.20;3.00;;;;;;;3.02;100.00;90434.47;2080912;28;20116;-84
2024/03/28 03:00:39;;;;;;;3.25;3.05;;;;;;;3.01;100.00;90434.91;2086732;28;20021;-85
2024/03/28 03:01:42;;;;;;;3.47;3.20;;;;;;;2.91;100.00;90433.41;2073266;28;20029;-87
2024/03/28 03:02:43;;;;;;;3.30;3.00;;;;;;;3.19;100.00;90435.00;2079656;28;20458;-86
2024/03/28 03:03:44;;;;;;;3.00;2.80;;;;;;;3.21;100.00;90435.31;2073914;28;20022;-85
2024/03/28 03:04:46;;;;;;;3.17;2.90;;;;;;;3.21;100.00;90445.13;2087519;28;20049;-82
2024/03/28 03:05:54;;;;;;;3.00;2.80;;;;;;;3.12;100.00;90437.91;2084886;28;20452;-82
2024/03/28 03:06:55;;;;;;;2.88;2.67;;;;;;;2.83;100.00;90432.94;2082794;28;20056;-85
2024/03/28 03:07:56;;;;;;;2.45;2.33;;;;;;;2.74;100.00;90427.63;2080800;28;20049;-82
2024/03/28 03:08:57;;;;;;;2.40;2.30;;;;;;;2.98;100.00;90425.97;2072832;28;20033;-86
2024/03/28 03:09:58;;;;;;;2.60;2.40;;;;;;;2.72;100.00;90428.06;2088298;28;20120;-84
2024/03/28 03:10:59;;;;;;;2.55;2.40;;;;;;;2.82;100.00;90420.19;2080829;28;20164;-84
2024/03/28 03:12:01;;;;;;;2.58;2.38;;;;;;;2.94;100.00;90420.09;2081589;28;20033;-87
2024/03/28 03:13:02;;;;;;;2.22;2.13;;;;;;;2.89;100.00;90414.63;2096208;28;20021;-87
2024/03/28 03:14:03;;;;;;;2.10;2.00;;;;;;;3.00;100.00;90421.00;2081761;28;20572;-84
2024/03/28 03:15:05;;;;;;;2.15;2.05;;;;;;;2.87;100.00;90412.44;2088979;28;20385;-87
2024/03/28 03:16:06;;;;;;;2.65;2.05;;;;;;;2.56;100.00;90407.16;2095816;28;20165;-86
2024/03/28 03:17:09;;;;;;;2.13;2.03;;;;;;;2.69;100.00;90401.81;2090653;28;20063;-83
2024/03/28 03:18:10;;;;;;;1.63;1.52;;;;;;;2.81;100.00;90403.63;2087243;28;20021;-85
2024/03/28 03:19:12;;;;;;;1.80;1.70;;;;;;;3.00;100.00;90399.88;2090676;28;20064;-84
2024/03/28 03:20:14;;;;;;;2.08;1.70;;;;;;;2.86;100.00;90405.69;2078310;28;20017;-84
2024/03/28 03:21:16;;;;;;;1.55;1.45;;;;;;;2.89;100.00;90399.53;2089251;28;20035;-84
2024/03/28 03:22:18;;;;;;;1.58;1.48;;;;;;;2.76;100.00;90406.81;2106869;28;20051;-85
2024/03/28 03:23:19;;;;;;;1.50;1.40;;;;;;;2.35;100.00;90403.38;2098946;28;20064;-85
2024/03/28 03:24:20;;;;;;;1.67;1.58;;;;;;;2.48;100.00;90396.13;2078727;28;20116;-85
2024/03/28 03:25:28;;;;;;;1.80;1.70;;;;;;;2.56;100.00;90391.34;2095805;28;20116;-88
2024/03/28 03:26:34;;;;;;;1.58;1.38;;;;;;;2.99;100.00;90397.69;2099593;28;20374;-87
2024/03/28 03:34:34;;;;;;;1.63;1.52;;;;;;;2.70;100.00;90393.47;2088350;28;20033;-84
2024/03/28 03:35:36;;;;;;;1.85;1.35;;;;;;;2.83;100.00;90388.09;2095614;28;20116;-84
2024/03/28 03:36:37;;;;;;;1.60;1.50;;;;;;;2.75;100.00;90395.53;2087804;28;20036;-86
2024/03/28 03:37:38;;;;;;;2.15;2.00;;;;;;;2.81;100.00;90398.34;2084445;28;20202;-84
2024/03/28 03:38:39;;;;;;;1.55;1.45;;;;;;;2.67;100.00;90383.78;2082372;28;20036;-83
2024/03/28 03:39:40;;;;;;;1.98;1.80;;;;;;;2.91;100.00;90385.94;2082136;28;20025;-82
2024/03/28 03:40:41;;;;;;;1.73;1.63;;;;;;;2.61;100.00;90390.78;2084232;28;20025;-85
2024/03/28 03:41:42;;;;;;;1.58;1.48;;;;;;;2.81;100.00;90384.41;2084019;28;20047;-84
2024/03/28 03:42:43;;;;;;;1.65;1.42;;;;;;;2.85;100.00;90385.00;2097143;28;20040;-86
2024/03/28 03:43:44;;;;;;;1.90;1.80;;;;;;;2.71;100.00;90383.66;2077920;28;20045;-85
2024/03/28 03:44:46;;;;;;;1.88;1.77;;;;;;;2.89;100.00;90386.34;2090512;28;20036;-84
2024/03/28 03:45:47;;;;;;;1.50;1.40;;;;;;;2.78;100.00;90378.13;2082971;28;20621;-82
2024/03/28 03:46:48;;;;;;;1.60;1.50;;;;;;;3.09;100.00;90387.91;2089410;28;20032;-83
2024/03/28 03:47:49;;;;;;;1.70;1.60;;;;;;;3.14;100.00;90382.78;2086081;28;20466;-85
2024/03/28 03:48:50;;;;;;;1.50;1.40;;;;;;;3.14;100.00;90377.50;2090127;28;20041;-83
2024/03/28 03:49:51;;;;;;;1.10;1.10;;;;;;;3.16;100.00;90371.78;2080726;28;20033;-82
2024/03/28 03:50:53;;;;;;;1.40;1.17;;;;;;;3.44;100.00;90367.31;2081925;28;20026;-86
2024/03/28 03:51:54;;;;;;;0.80;0.80;;;;;;;3.38;100.00;90369.78;2090207;28;20462;-86
2024/03/28 03:52:55;;;;;;;1.10;1.00;;;;;;;3.22;100.00;90373.41;2089344;28;20043;-82
2024/03/28 03:53:57;;;;;;;1.00;1.00;;;;;;;3.49;100.00;90378.00;2097908;28;20020;-82
2024/03/28 03:54:58;;;;;;;1.77;1.30;;;;;;;3.23;100.00;90371.50;2090952;28;20025;-82
2024/03/28 03:55:59;;;;;;;1.30;1.20;;;;;;;3.23;100.00;90366.97;2089900;28;20028;-85
2024/03/28 03:57:00;;;;;;;1.40;1.30;;;;;;;3.34;100.00;90379.75;2089914;28;20112;-83
2024/03/28 03:58:01;;;;;;;1.88;1.77;;;;;;;3.03;100.00;90382.47;2090370;28;20099;-83
2024/03/28 03:59:03;;;;;;;1.70;1.60;;;;;;;3.15;100.00;90383.50;2098370;28;20389;-82
2024/03/28 04:00:04;;;;;;;1.95;1.85;;;;;;;3.07;100.00;90382.31;2090300;28;20025;-87
2024/03/28 04:01:05;;;;;;;12.85;11.65;;;;;;;3.22;100.00;90381.34;2085309;28;20037;-85
2024/03/28 04:02:07;;;;;;;2.60;2.40;;;;;;;3.10;100.00;90387.47;2085881;28;20123;-83
2024/03/28 04:03:08;;;;;;;2.60;2.40;;;;;;;2.75;100.00;90386.88;2094404;28;20036;-83
2024/03/28 04:04:09;;;;;;;2.00;1.90;;;;;;;2.94;100.00;90385.03;2090348;28;20136;-85
2024/03/28 04:05:10;;;;;;;2.00;1.90;;;;;;;3.00;100.00;90388.59;2077254;28;20034;-83
2024/03/28 04:06:12;;;;;;;2.33;2.22;;;;;;;3.11;100.00;90385.53;2081976;28;20021;-82
2024/03/28 04:07:14;;;;;;;2.08;1.90;;;;;;;2.90;100.00;90387.09;2098470;28;20090;-85
2024/03/28 04:08:16;;;;;;;2.20;2.00;;;;;;;2.81;100.00;90387.03;2090421;28;20029;-83
2024/03/28 04:09:17;;;;;;;2.20;2.00;;;;;;;3.05;100.00;90389.94;2098708;28;20044;-87
2024/03/28 04:10:18;;;;;;;2.38;2.20;;;;;;;3.06;100.00;90378.94;2097900;28;20394;-85
2024/03/28 04:11:19;;;;;;;2.50;2.30;;;;;;;3.17;100.00;90381.19;2085303;28;20033;-81
2024/03/28 04:12:20;;;;;;;1.80;1.70;;;;;;;3.15;100.00;90372.94;2089819;28;20064;-82
2024/03/28 04:13:22;;;;;;;2.17;1.95;;;;;;;3.61;100.00;90362.47;2090274;28;20025;-83
2024/03/28 04:14:23;;;;;;;2.85;2.10;;;;;;;3.38;100.00;90359.22;2090134;28;20514;-81
2024/03/28 04:15:26;;;;;;;2.78;2.22;;;;;;;3.15;100.00;90351.84;2085876;28;20059;-82
2024/03/28 04:16:27;;;;;;;2.75;2.40;;;;;;;3.03;100.00;90350.81;2082237;28;20064;-82
2024/03/28 04:17:28;;;;;;;2.58;2.38;;;;;;;3.27;100.00;90349.09;2085392;28;20033;-83
2024/03/28 04:18:29;;;;;;;2.70;2.50;;;;;;;3.25;100.00;90356.00;2090149;28;20052;-85
2024/03/28 04:19:30;;;;;;;2.88;2.67;;;;;;;3.35;100.00;90354.09;2089141;28;20107;-85
2024/03/28 04:20:31;;;;;;;2.50;2.30;;;;;;;3.11;100.00;90361.78;2078654;28;20021;-81
2024/03/28 04:21:34;;;;;;;2.65;2.45;;;;;;;3.17;100.00;90360.06;2081352;28;20449;-83
2024/03/28 04:22:35;;;;;;;2.65;2.50;;;;;;;3.34;100.00;90355.28;2082061;28;20030;-84
2024/03/28 04:23:36;;;;;;;2.78;2.58;;;;;;;3.18;100.00;90346.44;2088950;28;20355;-84
2024/03/28 04:24:38;;;;;;;2.92;2.72;;;;;;;3.08;100.00;90334.38;2096742;28;20052;-84
2024/03/28 04:25:39;;;;;;;3.53;3.22;;;;;;;3.23;100.00;90345.84;2097861;28;20039;-83
2024/03/28 04:26:40;;;;;;;3.05;2.83;;;;;;;3.31;100.00;90330.47;2089730;28;20048;-84
2024/03/28 04:27:41;;;;;;;2.88;2.67;;;;;;;3.28;100.00;90341.91;2087265;28;20226;-84
2024/03/28 04:28:42;;;;;;;2.92;2.72;;;;;;;3.31;100.00;90343.66;2096796;28;20087;-84
2024/03/28 04:29:43;;;;;;;2.60;2.40;;;;;;;3.44;100.00;90339.00;2089262;28;20068;-83
2024/03/28 04:30:45;;;;;;;3.15;2.95;;;;;;;3.33;100.00;90346.59;2078721;28;20148;-86
2024/03/28 04:31:46;;;;;;;4.18;2.67;;;;;;;3.46;100.00;90346.47;2088820;28;20024;-86
2024/03/28 04:32:47;;;;;;;3.00;2.80;;;;;;;3.46;100.00;90354.38;2090802;28;20029;-81
2024/03/28 04:33:49;;;;;;;2.80;2.60;;;;;;;3.56;100.00;90347.97;2084873;28;20029;-86
2024/03/28 04:34:50;;;;;;;3.70;2.45;;;;;;;3.33;100.00;90341.31;2077404;28;20563;-86
2024/03/28 04:35:51;;;;;;;2.92;2.72;;;;;;;3.61;100.00;90350.00;2080865;28;20115;-83
2024/03/28 04:36:52;;;;;;;2.80;2.60;;;;;;;3.66;100.00;90360.00;2090156;28;20029;-82
2024/03/28 04:37:53;;;;;;;3.17;2.78;;;;;;;3.65;100.00;90349.88;2106248;28;20020;-85
2024/03/28 04:38:54;;;;;;;2.92;2.72;;;;;;;3.71;100.00;90343.56;2089884;28;20076;-83
2024/03/28 04:39:55;;;;;;;2.72;2.53;;;;;;;3.84;100.00;90348.69;2090022;28;20157;-87
2024/03/28 04:40:57;;;;;;;3.03;2.83;;;;;;;3.64;100.00;90358.94;2089948;28;20052;-87
2024/03/28 04:41:58;;;;;;;3.00;2.80;;;;;;;3.65;100.00;90355.88;2089774;28;20062;-87
2024/03/28 04:42:59;;;;;;;2.63;2.42;;;;;;;3.60;100.00;90350.44;2086288;28;20024;-85
2024/03/28 04:44:00;;;;;;;2.90;2.70;;;;;;;3.51;100.00;90344.00;2097078;28;20028;-81
2024/03/28 04:45:01;;;;;;;2.92;2.70;;;;;;;3.25;100.00;90353.34;2096047;28;20021;-83
2024/03/28 04:46:03;;;;;;;3.58;2.28;;;;;;;3.21;100.00;90339.56;2086738;28;20029;-82
2024/03/28 04:47:04;;;;;;;2.90;2.70;;;;;;;3.33;100.00;90351.88;2090033;28;20465;-83
2024/03/28 04:48:05;;;;;;;2.88;2.67;;;;;;;3.58;100.00;90366.00;2089971;28;20051;-84
2024/03/28 04:49:06;;;;;;;2.75;2.55;;;;;;;3.61;100.00;90362.47;2088310;28;20027;-86
2024/03/28 04:50:09;;;;;;;2.75;2.55;;;;;;;3.81;100.00;90354.13;2081892;28;20030;-84
2024/03/28 04:51:10;;;;;;;2.20;2.00;;;;;;;3.77;100.00;90362.19;2096353;28;20119;-85
2024/03/28 04:52:11;;;;;;;1.60;1.50;;;;;;;3.66;100.00;90361.91;2089532;28;20028;-85
2024/03/28 04:53:12;;;;;;;1.60;1.50;;;;;;;3.65;100.00;90357.78;2087482;28;20492;-83
2024/03/28 04:54:13;;;;;;;1.30;1.20;;;;;;;3.73;100.00;90362.34;2089647;28;20111;-88
2024/03/28 04:55:14;;;;;;;1.00;1.00;;;;;;;3.89;100.00;90366.59;2089296;28;21097;-88
2024/03/28 04:56:16;;;;;;;1.75;1.17;;;;;;;3.85;100.00;90373.94;2097620;28;20038;-84
2024/03/28 04:57:17;;;;;;;1.50;1.10;;;;;;;3.90;100.00;90364.69;2106378;28;20097;-85